createdAt,value
2018-12-21T00:01:26.387Z,99539.30
2018-12-21T00:06:43.857Z,99545.41
2018-12-21T00:12:01.433Z,99540.19
2018-12-21T00:17:19.195Z,99536.28
2018-12-21T00:22:36.659Z,99511.70
2018-12-21T00:27:54.134Z,99505.05
2018-12-21T00:33:17.194Z,99505.82
2018-12-21T00:38:40.536Z,99499.61
2018-12-21T00:43:59.994Z,99499.11
2018-12-21T00:49:17.456Z,99487.02
2018-12-21T00:54:34.940Z,99483.56
2018-12-21T00:59:52.485Z,99483.78
2018-12-21T01:05:10.009Z,99480.13
2018-12-21T01:10:27.622Z,99465.86
2018-12-21T01:15:45.449Z,99468.37
2018-12-21T01:21:02.911Z,99468.31
2018-12-21T01:26:20.372Z,99461.50
2018-12-21T01:31:37.827Z,99457.75
2018-12-21T01:36:55.286Z,99448.88
2018-12-21T01:42:12.753Z,99445.42
2018-12-21T01:47:30.297Z,99437.05
2018-12-21T01:52:47.765Z,99423.09
2018-12-21T01:58:05.222Z,99422.03
2018-12-21T02:03:22.702Z,99410.25
2018-12-21T02:08:40.257Z,99396.59
2018-12-21T02:13:57.715Z,99391.38
2018-12-21T02:19:15.186Z,99374.37
2018-12-21T02:24:32.637Z,99369.16
2018-12-21T02:29:50.309Z,99353.04
2018-12-21T02:35:07.763Z,99340.48
2018-12-21T02:40:25.226Z,99339.23
2018-12-21T02:45:42.686Z,99321.80
2018-12-21T02:51:00.158Z,99323.41
2018-12-21T02:56:17.620Z,99321.41
2018-12-21T03:01:35.096Z,99302.63
2018-12-21T03:06:52.553Z,99287.33
2018-12-21T03:12:10.007Z,99279.16
2018-12-21T03:17:27.463Z,99254.94
2018-12-21T03:22:44.917Z,99244.86
2018-12-21T03:28:02.378Z,99246.06
2018-12-21T03:33:19.861Z,99246.13
2018-12-21T03:38:37.321Z,99233.53
2018-12-21T03:43:54.791Z,99238.39
2018-12-21T03:49:12.243Z,99218.58
2018-12-21T03:54:29.697Z,99230.45
2018-12-21T03:59:47.144Z,99221.27
2018-12-21T04:05:05.069Z,99191.70
2018-12-21T04:10:22.532Z,99165.16
2018-12-21T04:15:39.992Z,99144.56
2018-12-21T04:20:57.584Z,99130.98
2018-12-21T04:26:15.119Z,99099.58
2018-12-21T04:31:32.579Z,99080.13
2018-12-21T04:36:50.050Z,99082.45
2018-12-21T04:42:07.775Z,99076.99
2018-12-21T04:47:25.225Z,99068.16
2018-12-21T04:52:43.436Z,99050.69
2018-12-21T04:58:01.268Z,99049.45
2018-12-21T05:03:18.724Z,99039.82
2018-12-21T05:08:36.437Z,99052.41
2018-12-21T05:13:53.895Z,99041.86
2018-12-21T05:19:11.357Z,99023.08
2018-12-21T05:24:28.821Z,98991.02
2018-12-21T05:29:46.289Z,98989.02
2018-12-21T05:35:04.262Z,98996.20
2018-12-21T05:40:21.804Z,98977.55
2018-12-21T05:45:39.265Z,98969.83
2018-12-21T05:50:56.985Z,98952.17
2018-12-21T05:56:14.444Z,98922.03
2018-12-21T06:01:31.913Z,98907.23
2018-12-21T06:06:49.391Z,98890.18
2018-12-21T06:12:06.836Z,98857.30
2018-12-21T06:17:24.304Z,98855.88
2018-12-21T06:22:41.767Z,98837.80
2018-12-21T06:27:59.444Z,98816.50
2018-12-21T06:33:16.900Z,98798.43
2018-12-21T06:38:34.366Z,98773.05
2018-12-21T06:43:51.931Z,98763.28
2018-12-21T06:49:09.384Z,98749.25
2018-12-21T06:54:26.837Z,98732.98
2018-12-21T06:59:44.300Z,98742.73
2018-12-21T07:05:01.768Z,98720.72
2018-12-21T07:10:19.223Z,98710.36
2018-12-21T07:15:36.970Z,98690.77
2018-12-21T07:20:54.461Z,98692.04
2018-12-21T07:26:11.924Z,98689.59
2018-12-21T07:31:29.386Z,98681.09
2018-12-21T07:36:46.848Z,98672.44
2018-12-21T07:42:04.303Z,98662.84
2018-12-21T07:47:21.782Z,98673.94
2018-12-21T07:52:39.269Z,98641.59
2018-12-21T07:57:58.631Z,98632.16
2018-12-21T08:03:16.226Z,98617.84
2018-12-21T08:08:33.704Z,98592.38
2018-12-21T08:13:51.174Z,98583.07
2018-12-21T08:19:08.629Z,98581.89
2018-12-21T08:24:26.339Z,98563.13
2018-12-21T08:29:43.794Z,98551.62
2018-12-21T08:35:01.337Z,98532.76
2018-12-21T08:40:18.806Z,98522.80
2018-12-21T08:45:36.268Z,98488.97
2018-12-21T08:50:53.804Z,98476.56
2018-12-21T08:56:11.301Z,98460.71
2018-12-21T09:01:29.009Z,98458.50
2018-12-21T09:06:46.460Z,98452.41
2018-12-21T09:12:04.080Z,98446.23
2018-12-21T09:17:21.534Z,98424.28
2018-12-21T09:22:38.997Z,98412.09
2018-12-21T09:27:56.452Z,98406.14
2018-12-21T09:33:13.912Z,98402.34
2018-12-21T09:38:31.368Z,98388.86
2018-12-21T09:43:48.818Z,98395.73
2018-12-21T09:49:06.285Z,98367.67
2018-12-21T09:54:23.741Z,98382.59
2018-12-21T09:59:41.209Z,98378.93
2018-12-21T10:04:58.922Z,98364.98
2018-12-21T10:10:16.380Z,98360.86
2018-12-21T10:15:33.843Z,98367.83
2018-12-21T10:20:51.298Z,98349.89
2018-12-21T10:26:08.785Z,98339.92
2018-12-21T10:31:26.492Z,98340.74
2018-12-21T10:36:44.005Z,98331.95
2018-12-21T10:42:01.460Z,98325.04
2018-12-21T10:47:18.921Z,98323.63
2018-12-21T10:52:36.364Z,98320.86
2018-12-21T10:57:53.817Z,98322.09
2018-12-21T11:03:11.280Z,98320.59
2018-12-21T11:08:28.805Z,98313.48
2018-12-21T11:13:46.280Z,98312.78
2018-12-21T11:19:03.741Z,98317.50
2018-12-21T11:24:21.201Z,98311.39
2018-12-21T11:29:38.657Z,98301.58
2018-12-21T11:34:56.140Z,98310.97
2018-12-21T11:40:13.930Z,98298.31
2018-12-21T11:45:31.453Z,98303.25
2018-12-21T11:50:48.945Z,98290.27
2018-12-21T11:56:06.437Z,98288.88
2018-12-21T12:01:23.908Z,98284.84
2018-12-21T12:06:41.389Z,98280.09
2018-12-21T12:11:58.861Z,98282.95
2018-12-21T12:17:16.317Z,98286.74
2018-12-21T12:22:33.789Z,98282.80
2018-12-21T12:27:51.270Z,98298.25
2018-12-21T12:33:08.739Z,98300.04
2018-12-21T12:38:26.202Z,98306.19
2018-12-21T12:43:43.678Z,98301.19
2018-12-21T12:49:01.186Z,98305.84
2018-12-21T12:54:18.656Z,98326.02
2018-12-21T12:59:36.129Z,98340.35
2018-12-21T13:04:53.629Z,98328.67
2018-12-21T13:10:11.084Z,98325.97
2018-12-21T13:15:28.653Z,98318.65
2018-12-21T13:20:46.126Z,98323.45
2018-12-21T13:26:03.671Z,98331.34
2018-12-21T13:31:21.156Z,98346.56
2018-12-21T13:36:38.925Z,98357.69
2018-12-21T13:41:56.398Z,98366.52
2018-12-21T13:47:13.872Z,98373.98
2018-12-21T13:52:31.332Z,98381.45
2018-12-21T13:57:48.795Z,98386.98
2018-12-21T14:03:06.653Z,98382.80
2018-12-21T14:08:24.125Z,98395.16
2018-12-21T14:13:41.915Z,98417.42
2018-12-21T14:18:59.588Z,98432.51
2018-12-21T14:24:17.071Z,98442.89
2018-12-21T14:29:34.520Z,98453.22
2018-12-21T14:34:51.989Z,98453.08
2018-12-21T14:40:09.485Z,98470.65
2018-12-21T14:45:26.932Z,98484.86
2018-12-21T14:50:44.389Z,98481.66
2018-12-21T14:56:01.857Z,98496.80
2018-12-21T15:01:19.408Z,98496.86
2018-12-21T15:06:36.969Z,98503.48
2018-12-21T15:11:54.569Z,98518.05
2018-12-21T15:17:12.024Z,98524.05
2018-12-21T15:22:29.518Z,98538.13
2018-12-21T15:27:46.991Z,98549.52
2018-12-21T15:33:04.506Z,98543.01
2018-12-21T15:38:21.986Z,98560.28
2018-12-21T15:43:39.486Z,98574.55
2018-12-21T15:48:56.944Z,98586.09
2018-12-21T15:54:14.504Z,98578.34
2018-12-21T15:59:32.053Z,98580.61
2018-12-21T16:04:49.530Z,98584.59
2018-12-21T16:10:09.566Z,98594.31
2018-12-21T16:15:27.029Z,98600.27
2018-12-21T16:20:44.517Z,98617.79
2018-12-21T16:26:03.577Z,98618.05
2018-12-21T16:31:21.414Z,98644.54
2018-12-21T16:36:38.880Z,98631.41
2018-12-21T16:41:56.348Z,98647.72
2018-12-21T16:47:13.830Z,98640.89
2018-12-21T16:52:31.332Z,98650.89
2018-12-21T16:57:49.217Z,98661.84
2018-12-21T17:03:15.376Z,98660.70
2018-12-21T17:08:26.175Z,98688.22
2018-12-21T17:13:43.636Z,98705.52
2018-12-21T17:19:01.581Z,98720.95
2018-12-21T17:24:19.049Z,98719.20
2018-12-21T17:29:36.529Z,98727.43
2018-12-21T17:34:55.891Z,98733.55
2018-12-21T17:40:13.485Z,98736.00
2018-12-21T17:45:30.948Z,98736.50
2018-12-21T17:50:48.414Z,98754.91
2018-12-21T17:56:05.876Z,98788.30
2018-12-21T18:01:23.349Z,98798.14
2018-12-21T18:06:41.362Z,98793.04
2018-12-21T18:11:59.313Z,98811.86
2018-12-21T18:17:16.854Z,98813.34
2018-12-21T18:22:34.334Z,98830.72
2018-12-21T18:27:51.796Z,98825.10
2018-12-21T18:33:10.805Z,98850.59
2018-12-21T18:38:28.830Z,98842.89
2018-12-21T18:43:47.269Z,98860.65
2018-12-21T18:49:04.763Z,98866.45
2018-12-21T18:54:22.241Z,98871.52
2018-12-21T18:59:39.708Z,98876.09
2018-12-21T19:04:57.178Z,98887.73
2018-12-21T19:10:14.876Z,98892.57
2018-12-21T19:15:32.389Z,98897.79
2018-12-21T19:20:49.861Z,98897.58
2018-12-21T19:26:07.320Z,98901.59
2018-12-21T19:31:25.131Z,98892.94
2018-12-21T19:36:42.596Z,98897.36
2018-12-21T19:42:00.056Z,98902.88
2018-12-21T19:47:17.646Z,98901.34
2018-12-21T19:52:35.160Z,98921.00
2018-12-21T19:57:53.002Z,98916.72
2018-12-21T20:03:10.475Z,98932.28
2018-12-21T20:08:28.073Z,98947.02
2018-12-21T20:13:45.559Z,98946.50
2018-12-21T20:19:03.043Z,98946.20
2018-12-21T20:24:23.069Z,98946.26
2018-12-21T20:29:40.419Z,98951.66
2018-12-21T20:34:57.939Z,98954.10
2018-12-21T20:40:15.395Z,98954.73
2018-12-21T20:45:32.870Z,98976.77
2018-12-21T20:50:50.583Z,98970.84
2018-12-21T20:56:08.049Z,98976.80
2018-12-21T21:01:25.515Z,98980.93
2018-12-21T21:06:43.293Z,98994.28
2018-12-21T21:12:00.751Z,98996.03
2018-12-21T21:17:18.225Z,99009.03
2018-12-21T21:22:35.747Z,99010.77
2018-12-21T21:27:53.221Z,99013.47
2018-12-21T21:33:10.689Z,99012.08
2018-12-21T21:38:28.172Z,99026.47
2018-12-21T21:43:45.882Z,99024.83
2018-12-21T21:49:03.375Z,99024.30
2018-12-21T21:54:21.187Z,99043.38
2018-12-21T21:59:38.693Z,99057.45
2018-12-21T22:04:56.155Z,99064.53
2018-12-21T22:10:13.620Z,99074.11
2018-12-21T22:15:31.088Z,99071.80
2018-12-21T22:20:48.990Z,99069.09
2018-12-21T22:26:06.462Z,99076.77
2018-12-21T22:31:24.043Z,99083.30
2018-12-21T22:36:41.530Z,99077.86
2018-12-21T22:41:59.073Z,99083.73
2018-12-21T22:47:16.552Z,99080.50
2018-12-21T22:52:34.012Z,99086.45
2018-12-21T22:57:56.409Z,99088.45
2018-12-21T23:03:10.966Z,99086.25
2018-12-21T23:08:28.437Z,99095.66
2018-12-21T23:13:45.917Z,99102.05
2018-12-21T23:19:03.373Z,99108.81
2018-12-21T23:24:20.846Z,99108.05
2018-12-21T23:29:38.304Z,99105.64
2018-12-21T23:34:55.761Z,99100.64
2018-12-21T23:40:15.351Z,99108.36
2018-12-21T23:45:32.977Z,99099.14
2018-12-21T23:50:50.448Z,99108.73
2018-12-21T23:56:11.958Z,99113.14
